Latest Weather Observations for Maroochydore

IDQ60901

Issued at 11:21 am EST Monday 2 May 2016 (issued every 10 minutes, with the page automatically refreshed every 10 minutes)

About weather observations | Map of Brisbane area stations | Latest observations for Brisbane area | Other Formats
Station Details ID: 040861 Name: SUNSHINE COAST AIRPORT Lat: -26.60 Lon: 153.09 Height: 3.3 m
Data from the previous 72 hours. | See also: Recent months at Maroochydore
Date/Time
EST
Tmp

°C
App
Tmp
°C
Dew
Point
°C
Rel
Hum
%
Delta-T

°C
Wind Press
QNH
hPa
Press
MSL
hPa
Rain
since
9 am
mm
Dir
 
Spd
km/h
Gust
km/h
Spd
kts
Gust
kts
02/11:00am 25.9 27.3 21.1 75 3.2 ESE 15 20 8 11 1015.9 - 0.2
02/10:30am 25.9 27.5 20.7 73 3.4 SE 13 19 7 10 1016.2 - 0.2
02/10:00am 25.3 26.9 20.8 76 3.0 ESE 13 15 7 8 1016.3 - 0.0
02/09:30am 25.0 28.2 21.7 82 2.2 SSE 7 11 4 6 1016.8 - 0.0
02/09:00am 23.4 25.8 20.9 86 1.6 S 9 13 5 7 1016.9 1016.9 9.0
02/08:30am 22.4 25.2 21.6 95 0.5 SSW 9 11 5 6 1016.7 - 9.0
02/08:00am 21.4 23.8 20.9 97 0.3 S 9 13 5 7 1016.7 - 9.0
02/07:30am 20.7 22.5 20.4 98 0.2 SSW 11 15 6 8 1016.6 - 9.0
02/07:00am 20.0 22.2 19.7 98 0.2 S 7 11 4 6 1016.4 - 9.0
02/06:30am 19.7 20.7 19.4 98 0.2 S 13 17 7 9 1016.4 - 9.0
02/06:00am 19.2 22.4 18.9 98 0.2 CALM 0 0 0 0 1015.9 1015.9 9.0
02/05:30am 19.2 21.3 18.9 98 0.2 SW 6 7 3 4 1015.4 - 9.0
02/05:04am 19.1 22.3 18.8 98 0.2 CALM 0 0 0 0 1015.2 - 9.0
02/05:00am 19.2 22.4 18.9 98 0.2 CALM 0 0 0 0 1015.2 - 9.0
02/04:58am 19.1 22.3 18.8 98 0.2 CALM 0 0 0 0 1015.2 - 9.0
02/04:30am 19.4 21.4 19.1 98 0.2 SW 7 9 4 5 1014.9 - 9.0
02/04:10am 19.5 21.1 19.2 98 0.2 SW 9 15 5 8 1014.8 - 9.0
02/04:04am 19.5 20.4 19.2 98 0.2 SW 13 15 7 8 1014.7 - 9.0
02/04:00am 19.5 20.4 19.2 98 0.2 WSW 13 15 7 8 1014.7 - 9.0
02/03:30am 19.2 21.6 18.9 98 0.2 NNW 4 7 2 4 1014.1 - 9.0
02/03:19am 19.2 21.3 18.9 98 0.2 NNW 6 9 3 5 1014.1 - 9.0
02/03:00am 19.1 21.1 18.8 98 0.2 NNW 6 7 3 4 1014.3 1014.3 9.0
02/02:51am 19.1 21.1 18.8 98 0.2 NW 6 9 3 5 1014.4 - 9.0
02/02:30am 19.2 21.3 18.9 98 0.2 W 6 7 3 4 1014.7 - 9.0
02/02:00am 19.7 21.8 19.4 98 0.2 W 7 11 4 6 1015.1 - 9.0
02/01:30am 19.7 23.1 19.4 98 0.2 CALM 0 0 0 0 1015.4 - 9.0
02/01:05am 19.7 23.1 19.4 98 0.2 CALM 0 6 0 3 1015.7 - 9.0
02/01:00am 19.6 22.2 19.3 98 0.2 W 4 7 2 4 1015.7 - 9.0
02/12:55am 19.7 22.0 19.4 98 0.2 W 6 9 3 5 1015.7 - 9.0
02/12:53am 19.8 22.1 19.5 98 0.2 W 6 9 3 5 1015.7 - 9.0
02/12:46am 19.9 22.3 19.6 98 0.2 W 6 13 3 7 1015.7 - 9.0
02/12:30am 19.4 22.6 18.9 97 0.3 CALM 0 0 0 0 1015.5 - 9.0
02/12:02am 20.1 23.6 19.6 97 0.3 CALM 0 0 0 0 1016.2 - 9.0
02/12:00am 20.0 23.5 19.5 97 0.3 CALM 0 0 0 0 1016.2 1016.2 9.0
 
Date/Time
EST
Tmp

°C
App
Tmp
°C
Dew
Point
°C
Rel
Hum
%
Delta-T

°C
Wind Press
QNH
hPa
Press
MSL
hPa
Rain
since
9 am
mm
Dir
 
Spd
km/h
Gust
km/h
Spd
kts
Gust
kts
01/11:59pm 20.0 23.6 19.7 98 0.2 CALM 0 0 0 0 1016.2 - 9.0
01/11:30pm 20.3 24.0 20.0 98 0.2 CALM 0 0 0 0 1016.5 - 9.0
01/11:00pm 20.4 24.2 20.1 98 0.2 CALM 0 4 0 2 1016.8 - 9.0
01/10:30pm 20.6 23.1 20.3 98 0.2 WSW 7 13 4 7 1016.8 - 9.0
01/10:00pm 20.3 22.2 19.8 97 0.3 W 9 15 5 8 1016.9 - 9.0
01/09:31pm 20.7 23.2 20.2 97 0.3 SW 7 13 4 7 1016.9 - 9.0
01/09:30pm 20.8 23.3 20.3 97 0.3 SW 7 13 4 7 1016.9 - 9.0
01/09:25pm 20.8 23.0 20.3 97 0.3 SW 9 13 5 7 1017.0 - 9.0
01/09:00pm 20.6 22.9 19.9 96 0.4 W 7 9 4 5 1016.6 1016.6 9.0
01/08:41pm 20.8 23.2 20.1 96 0.4 W 7 7 4 4 1016.5 - 9.0
01/08:30pm 21.0 23.2 20.3 96 0.4 W 9 11 5 6 1016.5 - 9.0
01/08:00pm 21.8 24.7 21.1 96 0.5 SSW 7 9 4 5 1016.7 - 9.0
01/07:30pm 21.4 25.1 20.7 96 0.5 E 2 7 1 4 1016.4 - 9.0
01/07:06pm 21.2 25.1 20.4 95 0.5 CALM 0 0 0 0 1016.1 - 9.0
01/07:00pm 21.2 24.7 20.4 95 0.5 S 2 6 1 3 1016.0 - 9.0
01/06:30pm 21.4 25.3 20.4 94 0.6 CALM 0 0 0 0 1015.9 - 9.0
01/06:00pm 22.0 24.5 21.0 94 0.7 SSW 9 13 5 7 1015.9 1015.9 9.0
01/05:30pm 22.3 25.2 21.1 93 0.8 S 7 11 4 6 1015.7 - 9.0
01/05:00pm 22.5 25.2 21.3 93 0.8 S 9 13 5 7 1015.6 - 9.0
01/04:30pm 22.7 25.0 21.3 92 0.9 S 11 15 6 8 1015.5 - 9.0
01/04:24pm 22.7 25.4 21.3 92 0.9 S 9 15 5 8 1015.5 - 9.0
01/04:00pm 23.1 24.9 21.9 93 0.8 S 15 20 8 11 1015.5 - 9.0
01/03:30pm 23.1 24.1 22.1 94 0.7 S 20 26 11 14 1015.3 - 9.0
01/03:07pm 23.6 25.2 22.8 95 0.5 S 19 26 10 14 1014.8 - 9.0
01/03:00pm 23.3 25.1 22.5 95 0.5 S 17 26 9 14 1014.7 1014.7 9.0
01/02:30pm 23.2 24.4 22.2 94 0.7 S 19 24 10 13 1014.6 - 8.8
01/02:11pm 24.1 26.2 22.5 91 1.1 SSE 15 20 8 11 1014.5 - 8.4
01/02:00pm 24.8 27.1 22.7 88 1.4 SE 15 20 8 11 1014.5 - 8.4
01/01:30pm 24.4 27.2 22.3 88 1.4 SE 11 13 6 7 1014.6 - 8.4
01/01:00pm 25.0 28.2 23.1 89 1.3 SE 11 15 6 8 1014.9 - 8.4
01/12:30pm 24.0 27.1 22.8 93 0.8 ESE 11 13 6 7 1015.5 - 8.4
01/12:00pm 23.6 26.8 22.4 93 0.8 E 9 13 5 7 1016.0 1016.0 8.4
01/11:53am 23.6 26.6 22.6 94 0.7 E 11 13 6 7 1016.0 - 8.4
01/11:30am 23.9 27.3 23.4 97 0.3 ENE 11 15 6 8 1016.4 - 8.4
01/11:00am 23.6 26.5 23.1 97 0.3 NE 13 17 7 9 1017.0 - 8.0
01/10:59am 23.8 26.8 23.3 97 0.3 NE 13 17 7 9 1017.1 - 8.0
01/10:41am 23.2 26.2 22.7 97 0.3 NE 11 15 6 8 1017.5 - 8.0
01/10:36am 22.8 25.6 22.3 97 0.3 NNE 11 15 6 8 1017.5 - 8.0
01/10:30am 23.0 26.3 22.5 97 0.3 NNE 9 13 5 7 1017.6 - 8.0
01/10:11am 22.3 24.8 21.8 97 0.3 NNE 11 15 6 8 1018.1 - 7.6
01/10:00am 22.4 23.5 21.9 97 0.3 NNE 19 24 10 13 1018.3 - 7.0
01/09:30am 22.5 24.4 22.0 97 0.3 N 15 19 8 10 1018.5 - 3.4
01/09:00am 22.7 24.7 22.2 97 0.3 N 15 20 8 11 1018.5 1018.5 47.2
01/08:30am 22.9 25.8 22.4 97 0.3 N 11 15 6 8 1018.3 - 42.6
01/08:00am 22.8 24.4 22.1 96 0.5 N 17 22 9 12 1018.1 - 38.8
01/07:41am 23.5 25.9 23.0 97 0.3 NE 15 20 8 11 1018.0 - 38.0
01/07:30am 23.4 25.4 22.9 97 0.3 NE 17 22 9 12 1018.1 - 37.8
01/07:27am 23.3 25.2 22.8 97 0.3 NE 17 22 9 12 1018.1 - 37.8
01/07:00am 23.1 25.0 22.8 98 0.2 NE 17 20 9 11 1017.9 - 37.8
01/06:30am 21.6 26.0 21.3 98 0.2 CALM 0 0 0 0 1017.5 - 37.8
01/06:00am 21.3 24.2 21.0 98 0.2 WSW 7 11 4 6 1017.5 1017.5 37.6
01/05:30am 21.2 23.6 20.9 98 0.2 SW 9 13 5 7 1017.3 - 37.6
01/05:00am 21.2 23.9 20.7 97 0.3 W 7 11 4 6 1017.2 - 37.2
01/04:30am 21.2 23.2 20.7 97 0.3 S 11 15 6 8 1017.0 - 37.2
01/04:06am 21.2 22.8 20.7 97 0.3 SW 13 17 7 9 1017.0 - 37.2
01/04:00am 21.2 24.1 20.7 97 0.3 W 6 17 3 9 1017.0 - 37.2
01/03:45am 21.1 23.0 20.6 97 0.3 WSW 11 17 6 9 1017.1 - 36.6
01/03:30am 21.1 22.6 20.6 97 0.3 SW 13 19 7 10 1017.1 - 35.6
01/03:00am 21.3 23.3 20.8 97 0.3 WSW 11 15 6 8 1017.2 1017.2 35.6
01/02:30am 21.4 23.6 21.1 98 0.2 WSW 11 15 6 8 1017.6 - 35.2
01/02:26am 21.3 23.7 20.8 97 0.3 W 9 15 5 8 1017.7 - 35.2
01/02:02am 21.4 23.1 20.9 97 0.3 SW 13 20 7 11 1017.7 - 33.6
01/02:00am 21.5 23.2 21.0 97 0.3 WSW 13 20 7 11 1017.8 - 33.0
01/01:30am 21.6 24.1 21.1 97 0.3 SSW 9 11 5 6 1018.0 - 32.4
01/01:21am 21.6 23.8 21.1 97 0.3 SW 11 15 6 8 1018.1 - 32.2
01/01:00am 21.6 23.4 21.1 97 0.3 SSW 13 17 7 9 1018.2 - 31.6
01/12:47am 21.6 23.0 21.1 97 0.3 SSW 15 19 8 10 1018.3 - 29.6
01/12:34am 21.6 22.6 21.1 97 0.3 SSW 17 20 9 11 1018.3 - 28.8
01/12:30am 21.6 22.6 21.1 97 0.3 SSW 17 24 9 13 1018.3 - 28.8
01/12:08am 21.6 24.1 21.1 97 0.3 S 9 13 5 7 1019.0 - 26.8
01/12:00am 21.5 24.0 21.0 97 0.3 SW 9 13 5 7 1018.8 1018.8 25.8
 
Date/Time
EST
Tmp

°C
App
Tmp
°C
Dew
Point
°C
Rel
Hum
%
Delta-T

°C
Wind Press
QNH
hPa
Press
MSL
hPa
Rain
since
9 am
mm
Dir
 
Spd
km/h
Gust
km/h
Spd
kts
Gust
kts
30/11:54pm 21.5 24.0 21.0 97 0.3 SW 9 13 5 7 1018.8 - 25.8
30/11:48pm 21.5 23.6 21.0 97 0.3 SW 11 17 6 9 1018.7 - 25.8
30/11:30pm 21.5 23.6 21.0 97 0.3 SW 11 15 6 8 1018.9 - 24.0
30/11:26pm 21.5 23.6 21.0 97 0.3 WSW 11 15 6 8 1019.0 - 23.6
30/11:00pm 21.6 24.1 21.1 97 0.3 SW 9 13 5 7 1019.2 - 23.2
30/10:47pm 21.7 23.9 21.2 97 0.3 SSW 11 13 6 7 1019.4 - 23.2
30/10:30pm 21.7 24.7 21.2 97 0.3 WSW 7 11 4 6 1019.4 - 23.2
30/10:13pm 21.6 24.5 21.1 97 0.3 N 7 9 4 5 1019.5 - 23.2
30/10:00pm 21.6 24.5 21.1 97 0.3 NNE 7 11 4 6 1019.5 - 23.0
30/09:31pm 22.0 24.4 21.5 97 0.3 NE 11 15 6 8 1019.9 - 22.6
30/09:30pm 22.0 24.4 21.5 97 0.3 NE 11 15 6 8 1019.9 - 22.6
30/09:08pm 21.6 23.3 20.9 96 0.5 NNE 13 17 7 9 1020.0 - 22.4
30/09:00pm 21.6 22.9 20.9 96 0.5 NE 15 19 8 10 1020.1 1020.1 22.4
30/08:30pm 21.8 26.2 21.3 97 0.3 CALM 0 0 0 0 1020.0 - 22.4
30/08:00pm 21.8 26.2 21.3 97 0.3 CALM 0 6 0 3 1019.8 - 22.4
30/07:46pm 21.9 25.2 21.4 97 0.3 SSW 6 9 3 5 1019.7 - 22.4
30/07:34pm 21.9 24.2 21.4 97 0.3 S 11 15 6 8 1019.6 - 22.4
30/07:32pm 21.8 24.1 21.3 97 0.3 S 11 15 6 8 1019.6 - 22.2
30/07:30pm 21.8 24.1 21.3 97 0.3 S 11 15 6 8 1019.6 - 22.0
30/07:00pm 21.4 24.4 20.9 97 0.3 SW 6 9 3 5 1019.2 - 21.6
30/06:32pm 21.4 24.3 20.7 96 0.5 WNW 6 9 3 5 1019.1 - 21.6
30/06:30pm 21.3 24.2 20.6 96 0.5 WNW 6 7 3 4 1019.1 - 21.6
30/06:15pm 21.4 24.3 20.7 96 0.5 NNW 6 7 3 4 1019.1 - 21.6
30/06:09pm 21.4 24.3 20.7 96 0.5 N 6 7 3 4 1019.1 - 21.6
30/06:00pm 21.4 25.1 20.7 96 0.5 ENE 2 6 1 3 1019.1 1019.1 21.4
30/05:59pm 21.4 25.1 20.7 96 0.5 E 2 6 1 3 1019.1 - 21.4
30/05:36pm 21.6 25.7 20.8 95 0.5 CALM 0 2 0 1 1018.9 - 21.2
30/05:30pm 21.5 25.2 20.7 95 0.5 ESE 2 7 1 4 1018.8 - 20.6
30/05:00pm 21.9 24.1 21.1 95 0.5 E 11 17 6 9 1018.7 - 19.2
30/04:49pm 22.0 23.7 21.0 94 0.7 ENE 13 19 7 10 1018.7 - 19.0
30/04:41pm 21.9 23.2 20.9 94 0.7 ENE 15 19 8 10 1018.6 - 19.0
30/04:30pm 21.7 23.7 20.7 94 0.6 ENE 11 19 6 10 1018.5 - 19.0
30/04:26pm 22.0 25.2 21.2 95 0.5 N 6 19 3 10 1018.5 - 19.0
30/04:00pm 22.4 26.9 21.6 95 0.5 CALM 0 0 0 0 1018.2 - 19.0
30/03:54pm 22.3 26.8 21.5 95 0.5 CALM 0 0 0 0 1018.3 - 19.0
30/03:44pm 22.2 26.6 21.4 95 0.5 CALM 0 0 0 0 1018.2 - 19.0
30/03:30pm 22.1 26.5 21.3 95 0.5 CALM 0 0 0 0 1018.4 - 18.8
30/03:00pm 22.1 25.3 21.3 95 0.5 NNE 6 9 3 5 1018.3 1018.3 13.8
30/02:37pm 22.5 23.2 21.5 94 0.7 N 20 24 11 13 1018.1 - 6.2
30/02:34pm 23.2 26.7 22.2 94 0.7 SW 7 17 4 9 1018.1 - 4.4
30/02:30pm 23.3 26.9 22.3 94 0.7 SSW 7 13 4 7 1017.9 - 2.8
30/02:00pm 23.2 25.6 22.2 94 0.7 S 13 15 7 8 1017.9 - 2.8
30/01:33pm 23.4 25.4 22.2 93 0.8 S 15 17 8 9 1018.2 - 2.8
30/01:30pm 23.0 25.0 21.6 92 0.9 S 13 17 7 9 1018.2 - 2.8
30/01:00pm 23.8 27.1 21.9 89 1.3 ENE 7 13 4 7 1018.6 - 1.2
30/12:47pm 24.4 27.1 22.1 87 1.5 ENE 11 17 6 9 1018.8 - 0.0
30/12:30pm 24.7 26.9 21.8 84 1.9 SE 13 17 7 9 1018.9 - 0.0
30/12:00pm 24.9 25.5 20.2 75 3.0 SE 17 20 9 11 1019.3 1019.3 0.0
30/11:30am 25.6 27.5 21.3 77 2.8 SE 13 19 7 10 1019.8 - 0.0
30/11:00am 25.5 27.5 21.6 79 2.6 SE 13 19 7 10 1020.3 - 0.0
30/10:30am 25.9 28.6 21.3 76 3.0 ESE 9 13 5 7 1020.7 - 0.0
30/10:00am 26.0 29.5 22.9 83 2.1 SE 9 13 5 7 1021.0 - 0.0
30/09:32am 25.1 28.0 21.8 82 2.2 S 9 15 5 8 1021.1 - 0.0
30/09:30am 25.2 28.4 22.3 84 1.9 S 9 15 5 8 1021.2 - 0.0
30/09:07am 24.3 27.4 22.2 88 1.4 S 9 15 5 8 1021.1 - 0.0
30/09:00am 24.1 27.1 22.0 88 1.4 S 9 13 5 7 1021.1 1021.1 18.8
30/08:30am 22.8 25.6 21.6 93 0.8 SSW 9 15 5 8 1021.1 - 18.8
30/08:00am 21.7 24.3 21.2 97 0.3 SSW 9 13 5 7 1021.1 - 18.8
30/07:30am 20.8 23.5 20.3 97 0.3 SSW 6 9 3 5 1021.1 - 18.8
30/07:00am 20.1 22.3 19.6 97 0.3 WSW 7 9 4 5 1020.7 - 18.4
30/06:30am 20.1 22.5 19.6 97 0.3 SW 6 7 3 4 1020.5 - 18.2
30/06:00am 19.5 21.0 19.0 97 0.3 WSW 9 11 5 6 1020.0 1020.0 18.0
30/05:30am 19.6 21.6 19.1 97 0.3 SW 7 9 4 5 1019.7 - 18.0
30/05:00am 19.6 21.6 19.1 97 0.3 WSW 7 9 4 5 1019.5 - 18.0
30/04:30am 19.9 22.2 19.4 97 0.3 SW 6 9 3 5 1019.4 - 18.0
30/04:00am 20.0 22.1 19.3 96 0.4 SW 7 9 4 5 1019.5 - 18.0
30/03:30am 20.3 22.8 19.8 97 0.3 SW 6 9 3 5 1019.5 - 18.0
30/03:00am 20.5 22.9 20.0 97 0.3 W 7 11 4 6 1019.6 1019.6 18.0
30/02:30am 20.7 22.7 20.0 96 0.4 SSW 9 11 5 6 1019.8 - 18.0
30/02:00am 20.7 24.0 20.0 96 0.4 SSW 2 7 1 4 1020.0 - 18.0
30/01:30am 20.7 23.7 20.0 96 0.4 WSW 4 11 2 6 1020.3 - 18.0
30/01:00am 20.9 23.6 20.2 96 0.4 SW 6 9 3 5 1020.7 - 18.0
30/12:30am 20.9 22.6 20.2 96 0.4 WSW 11 15 6 8 1021.0 - 18.0
30/12:00am 21.0 24.3 20.0 94 0.6 S 2 9 1 5 1021.2 1021.2 18.0
 
Date/Time
EST
Tmp

°C
App
Tmp
°C
Dew
Point
°C
Rel
Hum
%
Delta-T

°C
Wind Press
QNH
hPa
Press
MSL
hPa
Rain
since
9 am
mm
Dir
 
Spd
km/h
Gust
km/h
Spd
kts
Gust
kts
29/11:30pm 21.4 24.2 20.4 94 0.6 SSW 6 11 3 6 1021.4 - 18.0
29/11:00pm 21.4 24.1 20.2 93 0.8 NNE 6 13 3 7 1021.7 - 17.8
29/10:30pm 21.9 24.4 19.8 88 1.3 NW 6 9 3 5 1021.7 - 17.6
29/10:00pm 23.6 24.1 21.1 86 1.6 ENE 20 24 11 13 1021.6 - 17.6
29/09:30pm 23.4 24.6 20.7 85 1.8 E 15 19 8 10 1021.7 - 17.6
29/09:00pm 23.4 24.3 20.9 86 1.6 E 17 24 9 13 1021.6 1021.6 17.6
29/08:30pm 23.2 24.1 21.5 90 1.1 E 19 26 10 14 1021.4 - 17.6
29/08:00pm 21.9 24.1 20.5 92 0.9 ESE 9 17 5 9 1021.4 - 17.6
29/07:34pm 22.7 24.6 21.3 92 0.9 ESE 13 20 7 11 1021.3 - 16.2
29/07:30pm 22.7 24.2 21.2 91 1.0 SE 15 20 8 11 1021.3 - 15.6
29/07:00pm 22.4 21.6 20.1 87 1.5 ESE 24 33 13 18 1020.8 - 15.6
29/06:30pm 22.5 22.7 20.6 89 1.2 ESE 20 28 11 15 1020.6 - 15.6
29/06:00pm 23.0 23.3 20.5 86 1.6 ESE 19 24 10 13 1020.6 1020.6 15.6
29/05:30pm 23.6 24.8 20.7 84 1.9 ESE 15 22 8 12 1020.2 - 15.6
29/05:00pm 23.8 25.0 20.7 83 2.0 E 15 20 8 11 1020.0 - 15.6
29/04:30pm 23.8 24.5 20.5 82 2.1 E 17 22 9 12 1019.7 - 15.6
29/04:00pm 24.0 24.4 20.7 82 2.2 E 19 24 10 13 1019.6 - 15.6
29/03:30pm 24.0 24.4 20.7 82 2.2 E 19 26 10 14 1019.4 - 15.6
29/03:00pm 23.3 24.7 21.0 87 1.5 E 15 20 8 11 1019.6 1019.6 15.6
29/02:37pm 22.9 26.8 21.9 94 0.7 ESE 4 9 2 5 1019.8 - 15.6
29/02:30pm 22.6 26.7 21.6 94 0.7 S 2 9 1 5 1019.8 - 15.6
29/02:00pm 22.1 24.8 21.3 95 0.5 SSW 9 13 5 7 1019.8 - 15.6
29/01:36pm 22.1 25.2 21.4 96 0.5 SW 7 13 4 7 1019.9 - 15.6
29/01:30pm 22.0 24.3 21.3 96 0.5 SW 11 15 6 8 1019.9 - 15.6
29/01:20pm 21.9 24.1 21.1 95 0.5 SSW 11 15 6 8 1020.0 - 15.4
29/01:14pm 21.9 23.7 21.1 95 0.5 SSW 13 19 7 10 1020.0 - 14.8
29/01:00pm 21.9 23.7 21.1 95 0.5 SSW 13 17 7 9 1020.2 - 14.2
29/12:51pm 21.8 23.1 20.8 94 0.6 S 15 20 8 11 1020.3 - 13.6
29/12:36pm 22.0 23.6 20.8 93 0.8 SSE 13 19 7 10 1020.5 - 13.4
29/12:32pm 22.1 24.2 20.9 93 0.8 SSE 11 19 6 10 1020.5 - 13.0
29/12:30pm 22.5 24.8 21.3 93 0.8 SSE 11 17 6 9 1020.5 - 12.8
29/12:00pm 22.5 24.2 21.7 95 0.5 S 15 19 8 10 1021.0 1021.0 12.8
29/11:42am 22.3 24.3 21.6 96 0.5 SSW 13 19 7 10 1021.4 - 12.8
29/11:40am 22.3 24.3 21.6 96 0.5 SSW 13 19 7 10 1021.4 - 12.8
29/11:30am 21.8 23.6 21.1 96 0.5 S 13 17 7 9 1021.6 - 12.6

Latest Capital City Observations: Canberra | Sydney | Melbourne | Brisbane | Adelaide | Perth | Hobart | Darwin

Other Formats:

Comma delimited format used in spreadsheet applications
http://www.bom.gov.au/fwo/IDQ60901/IDQ60901.94569.axf

JavaScript Object Notation format (JSON) in row-major order
http://www.bom.gov.au/fwo/IDQ60901/IDQ60901.94569.json